createdAt,value
2023-03-29T13:21:11.087Z,424.00
2023-03-29T13:22:11.120Z,425.00
2023-03-29T13:23:11.770Z,423.00
2023-03-29T13:24:11.018Z,407.00
2023-03-29T13:25:10.929Z,413.00
2023-03-29T13:26:10.846Z,414.00
2023-03-29T13:27:11.785Z,412.00
2023-03-29T13:28:10.695Z,411.00
2023-03-29T13:29:10.621Z,409.00
2023-03-29T13:30:10.558Z,412.00
2023-03-29T13:31:10.641Z,411.00
2023-03-29T13:32:10.389Z,424.00
2023-03-29T13:33:16.391Z,402.00
2023-03-29T13:34:12.837Z,408.00
2023-03-29T13:35:10.799Z,396.00
2023-03-29T13:36:10.091Z,400.00
2023-03-29T13:37:09.952Z,443.00
2023-03-29T13:38:09.849Z,402.00
2023-03-29T13:39:09.752Z,405.00
2023-03-29T13:40:09.650Z,404.00
2023-03-29T13:41:09.547Z,381.00
2023-03-29T13:42:09.455Z,387.00
2023-03-29T13:43:09.367Z,398.00
2023-03-29T13:44:09.320Z,404.00
2023-03-29T13:45:09.188Z,409.00
2023-03-29T13:46:09.196Z,378.00
2023-03-29T13:47:09.051Z,416.00
2023-03-29T13:48:08.996Z,416.00
2023-03-29T13:49:08.918Z,413.00
2023-03-29T13:50:08.873Z,405.00
2023-03-29T13:51:08.823Z,403.00
2023-03-29T13:52:08.753Z,411.00
2023-03-29T13:53:08.691Z,398.00
2023-03-29T13:54:08.656Z,395.00
2023-03-29T13:55:08.646Z,437.00
2023-03-29T13:56:08.580Z,386.00
2023-03-29T13:57:08.640Z,403.00
2023-03-29T13:58:09.240Z,408.00
2023-03-29T13:59:08.769Z,411.00
2023-03-29T14:00:08.496Z,417.00
2023-03-29T14:01:08.458Z,408.00
2023-03-29T14:02:08.451Z,405.00
2023-03-29T14:03:08.918Z,442.00
2023-03-29T14:04:08.415Z,402.00
2023-03-29T14:05:08.384Z,396.00
2023-03-29T14:06:08.392Z,402.00
2023-03-29T14:07:08.396Z,404.00
2023-03-29T14:08:08.439Z,395.00
2023-03-29T14:09:08.466Z,398.00
2023-03-29T14:10:08.525Z,401.00
2023-03-29T14:11:08.430Z,399.00
2023-03-29T14:12:08.446Z,404.00
2023-03-29T14:13:08.478Z,403.00
2023-03-29T14:14:08.499Z,375.00
2023-03-29T14:15:08.410Z,400.00
2023-03-29T14:16:08.450Z,393.00
2023-03-29T14:17:08.447Z,398.00
2023-03-29T14:18:08.903Z,402.00
2023-03-29T14:19:08.401Z,404.00
2023-03-29T14:20:08.410Z,404.00
2023-03-29T14:21:09.278Z,394.00
2023-03-29T14:22:08.687Z,411.00
2023-03-29T14:23:08.402Z,419.00
2023-03-29T14:24:08.379Z,404.00
2023-03-29T14:25:08.396Z,404.00
2023-03-29T14:26:08.400Z,402.00
2023-03-29T14:27:08.369Z,407.00
2023-03-29T14:28:08.335Z,404.00
2023-03-29T14:29:08.356Z,412.00
2023-03-29T14:30:08.327Z,414.00
2023-03-29T14:31:08.337Z,409.00
2023-03-29T14:32:08.291Z,408.00
2023-03-29T14:33:08.317Z,405.00
2023-03-29T14:34:08.313Z,411.00
2023-03-29T14:35:08.264Z,407.00
2023-03-29T14:36:08.459Z,405.00
2023-03-29T14:37:08.300Z,408.00
2023-03-29T14:38:08.216Z,401.00
2023-03-29T14:39:08.218Z,399.00
2023-03-29T14:40:08.116Z,400.00
2023-03-29T14:41:08.074Z,397.00
2023-03-29T14:42:08.084Z,400.00
2023-03-29T14:43:08.109Z,398.00
2023-03-29T14:44:08.074Z,398.00
2023-03-29T14:45:08.043Z,410.00
2023-03-29T14:46:08.060Z,397.00
2023-03-29T14:47:07.982Z,400.00
2023-03-29T14:48:08.038Z,407.00
2023-03-29T14:49:07.962Z,398.00
2023-03-29T14:50:07.963Z,391.00
2023-03-29T14:51:07.946Z,380.00
2023-03-29T14:52:07.936Z,399.00
2023-03-29T14:53:07.983Z,403.00
2023-03-29T14:54:07.899Z,402.00
2023-03-29T14:55:07.876Z,392.00
2023-03-29T14:56:07.893Z,391.00
2023-03-29T14:57:08.041Z,400.00
2023-03-29T14:58:09.506Z,398.00
2023-03-29T14:59:07.847Z,396.00
2023-03-29T15:00:07.770Z,403.00
2023-03-29T15:01:07.798Z,403.00
2023-03-29T15:02:07.751Z,395.00
2023-03-29T15:03:07.844Z,413.00
2023-03-29T15:04:07.575Z,394.00
2023-03-29T15:05:07.502Z,399.00
2023-03-29T15:06:07.460Z,397.00
2023-03-29T15:07:07.412Z,411.00
2023-03-29T15:08:07.366Z,399.00
2023-03-29T15:09:07.352Z,385.00
2023-03-29T15:10:07.273Z,391.00
2023-03-29T15:11:07.268Z,416.00
2023-03-29T15:12:07.168Z,408.00
2023-03-29T15:13:07.138Z,390.00
2023-03-29T15:14:07.081Z,398.00
2023-03-29T15:15:07.024Z,398.00
2023-03-29T15:16:08.344Z,413.00
2023-03-29T15:17:06.904Z,406.00
2023-03-29T15:18:06.936Z,406.00
2023-03-29T15:19:06.780Z,405.00
2023-03-29T15:20:06.703Z,407.00
2023-03-29T15:21:06.668Z,406.00
2023-03-29T15:22:06.602Z,398.00
2023-03-29T15:23:06.584Z,407.00
2023-03-29T15:24:06.520Z,405.00
2023-03-29T15:25:06.473Z,404.00
2023-03-29T15:26:06.453Z,402.00
2023-03-29T15:27:06.408Z,398.00
2023-03-29T15:28:06.403Z,390.00
2023-03-29T15:29:06.286Z,402.00
2023-03-29T15:30:06.234Z,400.00
2023-03-29T15:31:08.229Z,394.00
2023-03-29T15:32:06.165Z,396.00
2023-03-29T15:33:06.208Z,403.00
2023-03-29T15:35:06.030Z,401.00
2023-03-29T15:36:06.384Z,389.00
2023-03-29T15:37:06.108Z,393.00
2023-03-29T15:38:06.020Z,395.00
2023-03-29T15:39:05.997Z,400.00
2023-03-29T15:40:05.971Z,401.00
2023-03-29T15:41:05.986Z,411.00
2023-03-29T15:42:05.937Z,403.00
2023-03-29T15:43:05.893Z,398.00
2023-03-29T15:44:06.849Z,398.00
2023-03-29T15:45:05.773Z,402.00
2023-03-29T15:46:05.942Z,401.00
2023-03-29T15:47:05.722Z,399.00
2023-03-29T15:48:05.759Z,402.00
2023-03-29T15:49:05.673Z,399.00
2023-03-29T15:50:05.579Z,406.00
2023-03-29T15:51:06.837Z,407.00
2023-03-29T15:52:05.515Z,406.00
2023-03-29T15:53:14.783Z,403.00
2023-03-29T15:54:06.478Z,403.00
2023-03-29T15:55:05.428Z,404.00
2023-03-29T15:56:05.535Z,404.00
2023-03-29T15:57:05.381Z,403.00
2023-03-29T15:58:05.364Z,405.00
2023-03-29T15:59:05.254Z,403.00
2023-03-29T16:00:05.201Z,401.00
2023-03-29T16:01:05.184Z,403.00
2023-03-29T16:02:05.187Z,404.00
2023-03-29T16:03:05.083Z,405.00
2023-03-29T16:04:05.100Z,402.00
2023-03-29T16:05:04.991Z,399.00
2023-03-29T16:06:05.287Z,402.00
2023-03-29T16:07:04.971Z,401.00
2023-03-29T16:08:04.931Z,405.00
2023-03-29T16:09:04.924Z,406.00
2023-03-29T16:10:04.949Z,406.00
2023-03-29T16:11:04.945Z,408.00
2023-03-29T16:12:04.972Z,411.00
2023-03-29T16:13:04.968Z,413.00
2023-03-29T16:14:05.051Z,412.00
2023-03-29T16:15:05.005Z,417.00
2023-03-29T16:16:05.223Z,421.00
2023-03-29T16:17:05.116Z,423.00
2023-03-29T16:18:05.055Z,421.00
2023-03-29T16:19:05.046Z,422.00
2023-03-29T16:20:05.090Z,421.00
2023-03-29T16:21:05.052Z,418.00
2023-03-29T16:22:05.137Z,419.00
2023-03-29T16:23:05.090Z,419.00
2023-03-29T16:24:05.090Z,417.00
2023-03-29T16:25:05.089Z,412.00
2023-03-29T16:26:05.449Z,414.00
2023-03-29T16:27:05.057Z,416.00
2023-03-29T16:28:05.061Z,417.00
2023-03-29T16:29:05.132Z,419.00
2023-03-29T16:30:05.084Z,424.00
2023-03-29T16:31:05.070Z,420.00
2023-03-29T16:32:06.887Z,420.00
2023-03-29T16:33:05.124Z,420.00
2023-03-29T16:34:05.076Z,419.00
2023-03-29T16:35:05.062Z,419.00
2023-03-29T16:36:05.288Z,418.00
2023-03-29T16:37:05.076Z,420.00
2023-03-29T16:38:05.104Z,419.00
2023-03-29T16:39:05.179Z,421.00
2023-03-29T16:40:05.288Z,420.00
2023-03-29T16:41:05.823Z,426.00
2023-03-29T16:42:05.217Z,429.00
2023-03-29T16:43:05.232Z,425.00
2023-03-29T16:44:05.246Z,422.00
2023-03-29T16:45:05.246Z,422.00
2023-03-29T16:46:05.462Z,424.00
2023-03-29T16:47:05.253Z,426.00
2023-03-29T16:48:05.314Z,430.00
2023-03-29T16:49:05.290Z,422.00
2023-03-29T16:50:05.366Z,415.00
2023-03-29T16:51:05.335Z,412.00
2023-03-29T16:52:05.390Z,412.00
2023-03-29T16:53:05.393Z,413.00
2023-03-29T16:54:06.103Z,413.00
2023-03-29T16:55:05.367Z,413.00
2023-03-29T16:56:05.645Z,409.00
2023-03-29T16:57:05.456Z,421.00
2023-03-29T16:58:05.511Z,426.00
2023-03-29T16:59:05.473Z,423.00
2023-03-29T17:00:05.494Z,420.00
2023-03-29T17:01:05.536Z,418.00
2023-03-29T17:02:05.555Z,420.00
2023-03-29T17:03:05.642Z,422.00
2023-03-29T17:04:05.624Z,425.00
2023-03-29T17:05:05.615Z,426.00
2023-03-29T17:06:05.838Z,425.00
2023-03-29T17:07:05.722Z,426.00
2023-03-29T17:08:05.731Z,427.00
2023-03-29T17:09:05.739Z,422.00
2023-03-29T17:10:05.755Z,414.00
2023-03-29T17:11:05.798Z,408.00
2023-03-29T17:12:05.804Z,411.00
2023-03-29T17:13:05.831Z,414.00
2023-03-29T17:14:05.838Z,415.00
2023-03-29T17:15:05.853Z,416.00
2023-03-29T17:16:06.263Z,418.00
2023-03-29T17:17:05.911Z,422.00
2023-03-29T17:18:05.986Z,424.00
2023-03-29T17:19:05.978Z,423.00
2023-03-29T17:20:05.963Z,421.00
2023-03-29T17:21:05.960Z,419.00
2023-03-29T17:22:05.964Z,424.00
2023-03-29T17:23:05.971Z,427.00
2023-03-29T17:24:05.977Z,430.00
2023-03-29T17:25:05.983Z,428.00
2023-03-29T17:26:05.999Z,422.00
2023-03-29T17:27:05.989Z,420.00
2023-03-29T17:28:05.991Z,418.00
2023-03-29T17:29:05.997Z,418.00
2023-03-29T17:30:05.983Z,419.00
2023-03-29T17:31:06.024Z,420.00
2023-03-29T17:32:05.989Z,416.00
2023-03-29T17:33:06.001Z,420.00
2023-03-29T17:34:05.964Z,425.00
2023-03-29T17:35:05.988Z,431.00
2023-03-29T17:36:06.454Z,430.00
2023-03-29T17:37:06.040Z,427.00
2023-03-29T17:38:06.119Z,426.00
2023-03-29T17:39:06.166Z,425.00
2023-03-29T17:40:06.197Z,423.00
2023-03-29T17:41:06.240Z,422.00
2023-03-29T17:42:06.322Z,423.00
2023-03-29T17:43:06.341Z,424.00
2023-03-29T17:44:06.400Z,424.00
2023-03-29T17:45:06.856Z,423.00
2023-03-29T17:46:06.528Z,423.00
2023-03-29T17:47:06.396Z,425.00
2023-03-29T17:48:06.718Z,417.00
2023-03-29T17:49:06.407Z,413.00
2023-03-29T17:50:06.385Z,416.00
2023-03-29T17:51:06.407Z,414.00
2023-03-29T17:52:06.408Z,417.00
2023-03-29T17:53:06.486Z,424.00
2023-03-29T17:54:06.411Z,426.00
2023-03-29T17:55:06.416Z,424.00
2023-03-29T17:56:06.424Z,421.00
2023-03-29T17:57:06.460Z,420.00
2023-03-29T17:58:06.412Z,418.00
2023-03-29T17:59:06.423Z,417.00
2023-03-29T18:00:06.490Z,418.00
2023-03-29T18:01:06.537Z,418.00
2023-03-29T18:02:06.678Z,415.00
2023-03-29T18:03:07.361Z,416.00
2023-03-29T18:04:06.679Z,419.00
2023-03-29T18:05:06.703Z,422.00
2023-03-29T18:06:06.906Z,421.00
2023-03-29T18:07:06.879Z,422.00
2023-03-29T18:08:06.947Z,423.00
2023-03-29T18:09:06.986Z,422.00
2023-03-29T18:10:07.052Z,414.00
2023-03-29T18:11:07.096Z,414.00
2023-03-29T18:12:07.133Z,413.00
2023-03-29T18:13:07.245Z,411.00
2023-03-29T18:14:07.214Z,410.00
2023-03-29T18:15:07.254Z,409.00
2023-03-29T18:16:07.630Z,410.00
2023-03-29T18:17:07.441Z,409.00
2023-03-29T18:18:07.493Z,410.00
2023-03-29T18:19:07.462Z,416.00
2023-03-29T18:20:07.548Z,420.00
2023-03-29T18:21:07.576Z,424.00
2023-03-29T18:22:07.584Z,422.00
2023-03-29T18:23:07.610Z,422.00
2023-03-29T18:24:07.622Z,424.00
2023-03-29T18:25:07.624Z,423.00
2023-03-29T18:26:07.678Z,421.00
2023-03-29T18:27:07.699Z,421.00
2023-03-29T18:28:07.780Z,423.00
2023-03-29T18:29:09.731Z,424.00
2023-03-29T18:30:07.723Z,424.00
2023-03-29T18:31:07.740Z,427.00
2023-03-29T18:32:07.844Z,431.00
2023-03-29T18:33:07.798Z,432.00
2023-03-29T18:34:07.812Z,434.00
2023-03-29T18:35:07.825Z,435.00
2023-03-29T18:36:10.878Z,432.00
2023-03-29T18:37:08.941Z,429.00
2023-03-29T18:38:07.926Z,427.00
2023-03-29T18:39:07.944Z,425.00
2023-03-29T18:40:08.063Z,423.00
2023-03-29T18:41:07.983Z,424.00
2023-03-29T18:42:08.759Z,424.00
2023-03-29T18:43:08.027Z,423.00
2023-03-29T18:44:08.096Z,427.00
2023-03-29T18:45:08.069Z,425.00
2023-03-29T18:46:08.235Z,427.00
2023-03-29T18:47:08.088Z,427.00
2023-03-29T18:48:08.233Z,425.00
2023-03-29T18:49:08.214Z,427.00
2023-03-29T18:50:08.308Z,430.00
2023-03-29T18:51:08.327Z,432.00
2023-03-29T18:52:08.372Z,432.00
2023-03-29T18:53:08.406Z,425.00
2023-03-29T18:54:08.481Z,427.00
2023-03-29T18:55:08.592Z,428.00
2023-03-29T18:56:08.633Z,429.00
2023-03-29T18:57:08.757Z,431.00
2023-03-29T18:58:08.774Z,434.00
2023-03-29T18:59:08.894Z,436.00
2023-03-29T19:00:08.933Z,434.00
2023-03-29T19:01:08.966Z,433.00
2023-03-29T19:02:09.005Z,430.00
2023-03-29T19:03:09.120Z,426.00
2023-03-29T19:04:09.075Z,426.00
2023-03-29T19:05:09.117Z,429.00
2023-03-29T19:06:09.119Z,428.00
2023-03-29T19:07:09.171Z,431.00
2023-03-29T19:08:09.248Z,434.00
2023-03-29T19:09:09.241Z,430.00
2023-03-29T19:10:09.242Z,428.00
2023-03-29T19:11:09.289Z,425.00
2023-03-29T19:12:09.274Z,423.00
2023-03-29T19:13:09.299Z,426.00
2023-03-29T19:14:09.428Z,426.00
2023-03-29T19:15:09.331Z,425.00
2023-03-29T19:16:09.589Z,424.00
2023-03-29T19:17:09.379Z,422.00
2023-03-29T19:18:09.422Z,420.00
2023-03-29T19:19:09.425Z,422.00
2023-03-29T19:20:09.421Z,423.00
2023-03-29T19:21:09.464Z,423.00
2023-03-29T19:22:09.518Z,421.00
2023-03-29T19:23:09.621Z,420.00
2023-03-29T19:24:09.708Z,421.00
2023-03-29T19:25:09.796Z,423.00
2023-03-29T19:26:09.867Z,424.00
2023-03-29T19:27:12.110Z,423.00
2023-03-29T19:28:09.936Z,425.00
2023-03-29T19:29:09.973Z,425.00
2023-03-29T19:30:10.018Z,426.00
2023-03-29T19:31:10.078Z,428.00
2023-03-29T19:32:10.048Z,429.00
2023-03-29T19:33:10.051Z,430.00
2023-03-29T19:34:10.056Z,427.00
2023-03-29T19:35:10.058Z,429.00
2023-03-29T19:36:10.150Z,429.00
2023-03-29T19:37:10.085Z,433.00
2023-03-29T19:38:10.108Z,430.00
2023-03-29T19:39:10.122Z,426.00
2023-03-29T19:40:10.129Z,423.00
2023-03-29T19:41:10.146Z,425.00
2023-03-29T19:42:10.123Z,424.00
2023-03-29T19:43:10.194Z,426.00
2023-03-29T19:44:10.158Z,426.00
2023-03-29T19:45:10.178Z,425.00
2023-03-29T19:46:10.344Z,424.00
2023-03-29T19:47:10.209Z,423.00
2023-03-29T19:49:10.242Z,423.00
2023-03-29T19:50:10.281Z,424.00
2023-03-29T19:51:10.250Z,425.00
2023-03-29T19:52:10.258Z,426.00
2023-03-29T19:53:10.324Z,426.00
2023-03-29T19:54:10.251Z,425.00
2023-03-29T19:55:10.259Z,425.00
2023-03-29T19:56:10.275Z,426.00
2023-03-29T19:57:10.441Z,427.00
2023-03-29T19:58:10.367Z,430.00
2023-03-29T19:59:10.438Z,427.00
2023-03-29T20:00:10.511Z,426.00
2023-03-29T20:01:10.583Z,427.00
2023-03-29T20:02:10.793Z,425.00
2023-03-29T20:03:10.803Z,423.00
2023-03-29T20:04:10.767Z,424.00
2023-03-29T20:05:10.809Z,424.00
2023-03-29T20:06:10.880Z,424.00
2023-03-29T20:07:10.889Z,429.00
2023-03-29T20:08:10.878Z,427.00
2023-03-29T20:09:10.882Z,431.00
2023-03-29T20:10:10.898Z,432.00
2023-03-29T20:11:10.930Z,435.00
2023-03-29T20:12:10.975Z,437.00
2023-03-29T20:13:10.979Z,435.00
2023-03-29T20:14:11.019Z,433.00
2023-03-29T20:15:11.064Z,433.00
2023-03-29T20:16:11.150Z,428.00
2023-03-29T20:17:11.176Z,429.00
2023-03-29T20:18:11.279Z,430.00
2023-03-29T20:19:11.277Z,432.00
2023-03-29T20:20:11.336Z,431.00
2023-03-29T20:21:11.409Z,432.00
2023-03-29T20:22:11.421Z,432.00
2023-03-29T20:23:11.440Z,433.00
2023-03-29T20:24:11.427Z,431.00
2023-03-29T20:25:11.443Z,430.00
2023-03-29T20:26:11.451Z,432.00
2023-03-29T20:27:11.445Z,430.00
2023-03-29T20:28:11.485Z,433.00
2023-03-29T20:29:11.475Z,433.00
2023-03-29T20:30:11.494Z,434.00
2023-03-29T20:31:11.530Z,434.00
2023-03-29T20:32:11.580Z,436.00
2023-03-29T20:33:11.539Z,435.00
2023-03-29T20:34:11.571Z,434.00
2023-03-29T20:35:11.634Z,433.00
2023-03-29T20:36:11.671Z,433.00
2023-03-29T20:37:11.690Z,435.00
2023-03-29T20:38:11.648Z,434.00
2023-03-29T20:39:11.658Z,437.00
2023-03-29T20:40:11.738Z,435.00
2023-03-29T20:41:11.774Z,437.00
2023-03-29T20:42:11.846Z,435.00
2023-03-29T20:43:11.917Z,435.00
2023-03-29T20:44:11.965Z,434.00
2023-03-29T20:45:11.952Z,434.00
2023-03-29T20:46:12.003Z,432.00
2023-03-29T20:47:11.981Z,429.00
2023-03-29T20:48:11.973Z,432.00
2023-03-29T20:49:11.994Z,431.00
2023-03-29T20:50:12.005Z,431.00
2023-03-29T20:51:12.003Z,434.00
2023-03-29T20:52:11.995Z,433.00
2023-03-29T20:53:12.010Z,436.00
2023-03-29T20:54:12.029Z,435.00
2023-03-29T20:55:12.043Z,438.00
2023-03-29T20:56:12.151Z,425.00
2023-03-29T20:57:12.079Z,434.00
2023-03-29T20:58:12.045Z,434.00
2023-03-29T20:59:12.043Z,436.00
2023-03-29T21:00:12.162Z,436.00
2023-03-29T21:01:12.101Z,437.00
2023-03-29T21:02:12.104Z,439.00
2023-03-29T21:03:12.219Z,439.00
2023-03-29T21:04:12.051Z,441.00
2023-03-29T21:05:12.051Z,443.00
2023-03-29T21:06:12.067Z,443.00
2023-03-29T21:07:12.061Z,442.00
2023-03-29T21:08:12.085Z,440.00
2023-03-29T21:09:12.060Z,439.00
2023-03-29T21:10:12.059Z,438.00
2023-03-29T21:11:12.085Z,437.00
2023-03-29T21:12:12.100Z,436.00
2023-03-29T21:13:12.143Z,437.00
2023-03-29T21:14:12.138Z,436.00
2023-03-29T21:15:12.170Z,435.00
2023-03-29T21:16:12.218Z,434.00
2023-03-29T21:17:12.305Z,433.00
2023-03-29T21:18:12.338Z,433.00
2023-03-29T21:19:12.383Z,436.00
2023-03-29T21:20:12.414Z,439.00
2023-03-29T21:21:12.501Z,437.00
2023-03-29T21:22:12.670Z,439.00
2023-03-29T21:23:12.599Z,442.00
2023-03-29T21:24:12.628Z,438.00
2023-03-29T21:25:12.695Z,443.00
2023-03-29T21:26:13.351Z,442.00
2023-03-29T21:27:12.797Z,443.00
2023-03-29T21:28:12.804Z,443.00
2023-03-29T21:29:12.820Z,445.00
2023-03-29T21:30:12.870Z,443.00
2023-03-29T21:31:12.930Z,446.00
2023-03-29T21:32:12.982Z,444.00
2023-03-29T21:33:12.998Z,443.00
2023-03-29T21:34:13.073Z,442.00
2023-03-29T21:35:13.092Z,445.00
2023-03-29T21:36:13.216Z,445.00
2023-03-29T21:37:15.169Z,445.00
2023-03-29T21:38:13.138Z,447.00
2023-03-29T21:39:13.145Z,444.00
2023-03-29T21:40:13.138Z,443.00
2023-03-29T21:41:13.129Z,441.00
2023-03-29T21:42:13.131Z,444.00
2023-03-29T21:43:13.131Z,444.00
2023-03-29T21:44:13.167Z,443.00
2023-03-29T21:45:13.133Z,442.00
2023-03-29T21:46:13.182Z,445.00
2023-03-29T21:47:13.148Z,442.00
2023-03-29T21:48:13.149Z,441.00
2023-03-29T21:49:13.140Z,439.00
2023-03-29T21:50:13.132Z,440.00
2023-03-29T21:51:13.127Z,440.00
2023-03-29T21:52:13.128Z,440.00
2023-03-29T21:53:13.117Z,436.00
2023-03-29T21:54:13.126Z,438.00
2023-03-29T21:55:13.125Z,433.00
2023-03-29T21:56:13.122Z,432.00
2023-03-29T21:57:13.184Z,432.00
2023-03-29T21:58:13.107Z,433.00
2023-03-29T21:59:13.189Z,433.00
2023-03-29T22:00:13.141Z,434.00
2023-03-29T22:01:13.197Z,432.00
2023-03-29T22:02:13.228Z,431.00
2023-03-29T22:03:13.223Z,430.00
2023-03-29T22:04:19.882Z,430.00
2023-03-29T22:05:14.232Z,429.00
2023-03-29T22:06:13.253Z,430.00
2023-03-29T22:07:13.256Z,430.00
2023-03-29T22:08:13.283Z,428.00
2023-03-29T22:09:13.260Z,429.00
2023-03-29T22:10:13.278Z,429.00
2023-03-29T22:11:13.249Z,430.00
2023-03-29T22:12:13.266Z,432.00
2023-03-29T22:13:13.263Z,431.00
2023-03-29T22:14:13.265Z,430.00
2023-03-29T22:15:13.327Z,433.00
2023-03-29T22:16:13.322Z,433.00
2023-03-29T22:17:13.309Z,431.00
2023-03-29T22:18:13.369Z,428.00
2023-03-29T22:19:13.307Z,430.00
2023-03-29T22:20:13.339Z,427.00
2023-03-29T22:21:13.374Z,432.00
2023-03-29T22:22:13.975Z,433.00
2023-03-29T22:23:13.440Z,432.00
2023-03-29T22:24:13.485Z,434.00
2023-03-29T22:25:13.557Z,438.00
2023-03-29T22:26:13.555Z,434.00
2023-03-29T22:27:13.626Z,432.00
2023-03-29T22:28:13.668Z,432.00
2023-03-29T22:29:13.728Z,432.00
2023-03-29T22:30:13.762Z,437.00
2023-03-29T22:31:13.825Z,442.00
2023-03-29T22:32:13.886Z,440.00
2023-03-29T22:33:13.873Z,440.00
2023-03-29T22:34:13.907Z,436.00
2023-03-29T22:35:13.979Z,435.00
2023-03-29T22:36:14.113Z,436.00
2023-03-29T22:37:14.081Z,435.00
2023-03-29T22:38:14.102Z,439.00
2023-03-29T22:39:14.141Z,438.00
2023-03-29T22:40:14.169Z,440.00
2023-03-29T22:41:14.176Z,438.00
2023-03-29T22:42:14.225Z,439.00
2023-03-29T22:43:14.385Z,436.00
2023-03-29T22:44:14.212Z,435.00
2023-03-29T22:45:14.188Z,436.00
2023-03-29T22:46:14.212Z,437.00
2023-03-29T22:47:14.132Z,436.00
2023-03-29T22:48:14.117Z,440.00
2023-03-29T22:49:14.112Z,441.00
2023-03-29T22:50:14.096Z,438.00
2023-03-29T22:51:14.106Z,440.00
2023-03-29T22:52:14.104Z,440.00
2023-03-29T22:53:14.091Z,438.00
2023-03-29T22:54:14.078Z,437.00
2023-03-29T22:55:14.124Z,435.00
2023-03-29T22:56:14.169Z,438.00
2023-03-29T22:57:14.237Z,438.00
2023-03-29T22:58:14.279Z,434.00
2023-03-29T22:59:14.341Z,435.00
2023-03-29T23:00:14.373Z,434.00
2023-03-29T23:01:14.427Z,433.00
2023-03-29T23:02:14.450Z,430.00
2023-03-29T23:03:14.501Z,432.00
2023-03-29T23:04:14.566Z,431.00
2023-03-29T23:05:14.523Z,429.00
2023-03-29T23:06:14.526Z,427.00
2023-03-29T23:07:14.532Z,427.00
2023-03-29T23:08:14.514Z,427.00
2023-03-29T23:09:16.398Z,425.00
2023-03-29T23:10:14.499Z,426.00
2023-03-29T23:11:14.494Z,427.00
2023-03-29T23:12:14.509Z,427.00
2023-03-29T23:13:14.507Z,427.00
2023-03-29T23:14:14.519Z,427.00
2023-03-29T23:15:14.514Z,429.00
2023-03-29T23:16:14.583Z,428.00
2023-03-29T23:17:14.512Z,427.00
2023-03-29T23:18:14.557Z,427.00
2023-03-29T23:19:14.605Z,426.00
2023-03-29T23:20:14.668Z,425.00
2023-03-29T23:21:14.800Z,425.00
2023-03-29T23:22:14.782Z,423.00
2023-03-29T23:23:14.832Z,425.00
2023-03-29T23:24:16.985Z,425.00
2023-03-29T23:25:14.889Z,427.00
2023-03-29T23:26:14.904Z,426.00
2023-03-29T23:27:14.907Z,426.00
2023-03-29T23:28:14.912Z,425.00
2023-03-29T23:29:14.957Z,420.00
2023-03-29T23:30:14.880Z,423.00
2023-03-29T23:31:14.917Z,424.00
2023-03-29T23:32:14.919Z,423.00
2023-03-29T23:33:14.888Z,423.00
2023-03-29T23:34:14.894Z,423.00
2023-03-29T23:35:14.892Z,424.00
2023-03-29T23:36:14.902Z,423.00
2023-03-29T23:37:14.938Z,419.00
2023-03-29T23:38:14.963Z,421.00
2023-03-29T23:39:14.957Z,420.00
2023-03-29T23:40:14.996Z,422.00
2023-03-29T23:41:14.973Z,422.00
2023-03-29T23:42:14.983Z,436.00
2023-03-29T23:43:15.004Z,428.00
2023-03-29T23:44:15.001Z,426.00
2023-03-29T23:45:15.009Z,426.00
2023-03-29T23:46:15.045Z,427.00
2023-03-29T23:47:15.042Z,425.00
2023-03-29T23:48:15.068Z,424.00
2023-03-29T23:49:15.051Z,425.00
2023-03-29T23:50:15.074Z,423.00
2023-03-29T23:51:15.081Z,426.00
2023-03-29T23:52:15.082Z,429.00
2023-03-29T23:53:15.081Z,429.00
2023-03-29T23:54:15.085Z,429.00
2023-03-29T23:55:15.102Z,431.00
2023-03-29T23:56:15.102Z,426.00
2023-03-29T23:57:15.158Z,429.00
2023-03-29T23:58:15.157Z,425.00
2023-03-29T23:59:15.165Z,427.00
